sensor_id;sensor_type;location;lat;lon;timestamp;P1;durP1;ratioP1;P2;durP2;ratioP2
19828;SDS011;10075;50.924;4.396;2023-08-06T00:01:00;6.25;;;2.47;;
19828;SDS011;10075;50.924;4.396;2023-08-06T00:03:28;4.65;;;2.70;;
19828;SDS011;10075;50.924;4.396;2023-08-06T00:05:54;7.10;;;2.60;;
19828;SDS011;10075;50.924;4.396;2023-08-06T00:08:21;6.97;;;2.78;;
19828;SDS011;10075;50.924;4.396;2023-08-06T00:10:50;6.25;;;2.97;;
19828;SDS011;10075;50.924;4.396;2023-08-06T00:13:17;7.32;;;2.72;;
19828;SDS011;10075;50.924;4.396;2023-08-06T00:15:44;6.68;;;2.47;;
19828;SDS011;10075;50.924;4.396;2023-08-06T00:18:11;4.43;;;2.55;;
19828;SDS011;10075;50.924;4.396;2023-08-06T00:20:38;4.63;;;2.70;;
19828;SDS011;10075;50.924;4.396;2023-08-06T00:23:06;5.65;;;2.85;;
19828;SDS011;10075;50.924;4.396;2023-08-06T00:25:33;7.53;;;2.53;;
19828;SDS011;10075;50.924;4.396;2023-08-06T00:28:01;6.45;;;2.63;;
19828;SDS011;10075;50.924;4.396;2023-08-06T00:30:29;5.45;;;2.80;;
19828;SDS011;10075;50.924;4.396;2023-08-06T00:32:56;4.28;;;2.55;;
19828;SDS011;10075;50.924;4.396;2023-08-06T00:35:22;6.78;;;3.53;;
19828;SDS011;10075;50.924;4.396;2023-08-06T00:37:49;3.92;;;2.97;;
19828;SDS011;10075;50.924;4.396;2023-08-06T00:40:19;7.50;;;3.20;;
19828;SDS011;10075;50.924;4.396;2023-08-06T00:42:47;8.00;;;4.03;;
19828;SDS011;10075;50.924;4.396;2023-08-06T00:45:16;7.78;;;4.47;;
19828;SDS011;10075;50.924;4.396;2023-08-06T00:47:43;8.50;;;5.00;;
19828;SDS011;10075;50.924;4.396;2023-08-06T00:50:10;8.95;;;4.80;;
19828;SDS011;10075;50.924;4.396;2023-08-06T00:52:37;9.68;;;5.55;;
19828;SDS011;10075;50.924;4.396;2023-08-06T00:55:05;8.48;;;5.72;;
19828;SDS011;10075;50.924;4.396;2023-08-06T00:57:33;10.05;;;5.93;;
19828;SDS011;10075;50.924;4.396;2023-08-06T01:00:00;11.32;;;5.55;;
19828;SDS011;10075;50.924;4.396;2023-08-06T01:02:30;11.82;;;5.57;;
19828;SDS011;10075;50.924;4.396;2023-08-06T01:04:59;8.57;;;5.55;;
19828;SDS011;10075;50.924;4.396;2023-08-06T01:07:29;10.57;;;5.57;;
19828;SDS011;10075;50.924;4.396;2023-08-06T01:10:11;9.38;;;5.20;;
19828;SDS011;10075;50.924;4.396;2023-08-06T01:12:51;8.48;;;5.10;;
19828;SDS011;10075;50.924;4.396;2023-08-06T01:15:32;7.63;;;5.38;;
19828;SDS011;10075;50.924;4.396;2023-08-06T01:18:04;11.95;;;6.90;;
19828;SDS011;10075;50.924;4.396;2023-08-06T01:20:33;11.80;;;7.45;;
19828;SDS011;10075;50.924;4.396;2023-08-06T01:23:00;9.85;;;6.97;;
19828;SDS011;10075;50.924;4.396;2023-08-06T01:25:36;13.15;;;7.25;;
19828;SDS011;10075;50.924;4.396;2023-08-06T01:28:23;10.75;;;7.10;;
19828;SDS011;10075;50.924;4.396;2023-08-06T01:31:07;12.48;;;7.60;;
19828;SDS011;10075;50.924;4.396;2023-08-06T01:33:36;13.82;;;7.88;;
19828;SDS011;10075;50.924;4.396;2023-08-06T01:36:11;15.88;;;8.38;;
19828;SDS011;10075;50.924;4.396;2023-08-06T01:38:38;12.73;;;8.55;;
19828;SDS011;10075;50.924;4.396;2023-08-06T01:41:05;15.32;;;8.82;;
19828;SDS011;10075;50.924;4.396;2023-08-06T01:43:32;13.38;;;8.10;;
19828;SDS011;10075;50.924;4.396;2023-08-06T01:45:59;13.38;;;8.75;;
19828;SDS011;10075;50.924;4.396;2023-08-06T01:48:26;18.23;;;8.85;;
19828;SDS011;10075;50.924;4.396;2023-08-06T01:50:53;12.68;;;8.68;;
19828;SDS011;10075;50.924;4.396;2023-08-06T01:53:21;16.27;;;8.90;;
19828;SDS011;10075;50.924;4.396;2023-08-06T01:55:48;12.90;;;8.63;;
19828;SDS011;10075;50.924;4.396;2023-08-06T01:58:16;17.60;;;7.72;;
19828;SDS011;10075;50.924;4.396;2023-08-06T02:00:43;15.98;;;8.48;;
19828;SDS011;10075;50.924;4.396;2023-08-06T02:03:10;12.80;;;8.43;;
19828;SDS011;10075;50.924;4.396;2023-08-06T02:05:37;16.98;;;8.32;;
19828;SDS011;10075;50.924;4.396;2023-08-06T02:08:03;12.70;;;8.02;;
19828;SDS011;10075;50.924;4.396;2023-08-06T02:10:32;11.27;;;7.68;;
19828;SDS011;10075;50.924;4.396;2023-08-06T02:12:59;12.60;;;7.05;;
19828;SDS011;10075;50.924;4.396;2023-08-06T02:15:26;14.90;;;7.60;;
19828;SDS011;10075;50.924;4.396;2023-08-06T02:17:53;15.93;;;7.50;;
19828;SDS011;10075;50.924;4.396;2023-08-06T02:20:20;13.98;;;7.57;;
19828;SDS011;10075;50.924;4.396;2023-08-06T02:22:47;15.60;;;7.45;;
19828;SDS011;10075;50.924;4.396;2023-08-06T02:25:14;15.10;;;8.32;;
19828;SDS011;10075;50.924;4.396;2023-08-06T02:27:43;19.92;;;7.47;;
19828;SDS011;10075;50.924;4.396;2023-08-06T02:30:09;16.13;;;7.80;;
19828;SDS011;10075;50.924;4.396;2023-08-06T02:32:37;14.20;;;7.47;;
19828;SDS011;10075;50.924;4.396;2023-08-06T02:35:04;15.27;;;6.10;;
19828;SDS011;10075;50.924;4.396;2023-08-06T02:37:32;15.93;;;6.75;;
19828;SDS011;10075;50.924;4.396;2023-08-06T02:40:00;14.73;;;6.75;;
19828;SDS011;10075;50.924;4.396;2023-08-06T02:42:27;14.93;;;6.38;;
19828;SDS011;10075;50.924;4.396;2023-08-06T02:44:55;10.75;;;6.45;;
19828;SDS011;10075;50.924;4.396;2023-08-06T02:47:22;16.48;;;6.25;;
19828;SDS011;10075;50.924;4.396;2023-08-06T02:49:49;21.75;;;6.78;;
19828;SDS011;10075;50.924;4.396;2023-08-06T02:52:16;14.40;;;6.32;;
19828;SDS011;10075;50.924;4.396;2023-08-06T02:54:43;13.85;;;6.75;;
19828;SDS011;10075;50.924;4.396;2023-08-06T02:57:10;16.27;;;7.07;;
19828;SDS011;10075;50.924;4.396;2023-08-06T02:59:37;13.48;;;7.32;;
19828;SDS011;10075;50.924;4.396;2023-08-06T03:02:06;13.73;;;7.38;;
19828;SDS011;10075;50.924;4.396;2023-08-06T03:04:33;15.57;;;8.27;;
19828;SDS011;10075;50.924;4.396;2023-08-06T03:07:00;19.70;;;8.70;;
19828;SDS011;10075;50.924;4.396;2023-08-06T03:09:27;25.50;;;10.38;;
19828;SDS011;10075;50.924;4.396;2023-08-06T03:11:54;19.70;;;11.85;;
19828;SDS011;10075;50.924;4.396;2023-08-06T03:14:20;22.30;;;13.30;;
19828;SDS011;10075;50.924;4.396;2023-08-06T03:16:47;23.02;;;12.27;;
19828;SDS011;10075;50.924;4.396;2023-08-06T03:19:16;23.75;;;15.02;;
19828;SDS011;10075;50.924;4.396;2023-08-06T03:21:43;24.33;;;14.57;;
19828;SDS011;10075;50.924;4.396;2023-08-06T03:24:10;22.55;;;13.95;;
19828;SDS011;10075;50.924;4.396;2023-08-06T03:26:37;26.92;;;16.23;;
19828;SDS011;10075;50.924;4.396;2023-08-06T03:29:03;31.60;;;16.40;;
19828;SDS011;10075;50.924;4.396;2023-08-06T03:31:30;29.00;;;15.98;;
19828;SDS011;10075;50.924;4.396;2023-08-06T03:33:57;27.75;;;15.02;;
19828;SDS011;10075;50.924;4.396;2023-08-06T03:36:26;28.77;;;17.08;;
19828;SDS011;10075;50.924;4.396;2023-08-06T03:38:53;31.25;;;16.50;;
19828;SDS011;10075;50.924;4.396;2023-08-06T03:41:19;27.58;;;16.48;;
19828;SDS011;10075;50.924;4.396;2023-08-06T03:43:46;32.30;;;15.75;;
19828;SDS011;10075;50.924;4.396;2023-08-06T03:46:13;28.52;;;15.20;;
19828;SDS011;10075;50.924;4.396;2023-08-06T03:48:40;22.50;;;13.48;;
19828;SDS011;10075;50.924;4.396;2023-08-06T03:51:07;20.08;;;11.65;;
19828;SDS011;10075;50.924;4.396;2023-08-06T03:53:36;15.43;;;9.65;;
19828;SDS011;10075;50.924;4.396;2023-08-06T03:56:03;19.23;;;9.55;;
19828;SDS011;10075;50.924;4.396;2023-08-06T03:58:30;17.17;;;10.23;;
19828;SDS011;10075;50.924;4.396;2023-08-06T04:00:58;33.38;;;10.52;;
19828;SDS011;10075;50.924;4.396;2023-08-06T04:03:25;34.45;;;12.18;;
19828;SDS011;10075;50.924;4.396;2023-08-06T04:05:52;31.15;;;9.38;;
19828;SDS011;10075;50.924;4.396;2023-08-06T04:08:20;9.60;;;5.03;;
19828;SDS011;10075;50.924;4.396;2023-08-06T04:10:50;8.05;;;4.63;;
19828;SDS011;10075;50.924;4.396;2023-08-06T04:13:18;9.60;;;4.93;;
19828;SDS011;10075;50.924;4.396;2023-08-06T04:15:46;4.47;;;3.00;;
19828;SDS011;10075;50.924;4.396;2023-08-06T04:18:13;2.00;;;1.70;;
19828;SDS011;10075;50.924;4.396;2023-08-06T04:20:43;2.17;;;1.70;;
19828;SDS011;10075;50.924;4.396;2023-08-06T04:23:10;5.68;;;1.90;;
19828;SDS011;10075;50.924;4.396;2023-08-06T04:25:38;4.60;;;1.83;;
19828;SDS011;10075;50.924;4.396;2023-08-06T04:28:06;3.15;;;1.88;;
19828;SDS011;10075;50.924;4.396;2023-08-06T04:30:34;2.22;;;1.90;;
19828;SDS011;10075;50.924;4.396;2023-08-06T04:33:01;3.55;;;2.40;;
19828;SDS011;10075;50.924;4.396;2023-08-06T04:35:28;5.63;;;3.20;;
19828;SDS011;10075;50.924;4.396;2023-08-06T04:37:54;8.20;;;3.75;;
19828;SDS011;10075;50.924;4.396;2023-08-06T04:40:21;5.38;;;3.75;;
19828;SDS011;10075;50.924;4.396;2023-08-06T04:42:48;12.07;;;4.35;;
19828;SDS011;10075;50.924;4.396;2023-08-06T04:45:17;8.95;;;3.70;;
19828;SDS011;10075;50.924;4.396;2023-08-06T04:47:44;11.38;;;4.60;;
19828;SDS011;10075;50.924;4.396;2023-08-06T04:50:11;13.82;;;6.10;;
19828;SDS011;10075;50.924;4.396;2023-08-06T04:52:37;10.10;;;5.60;;
19828;SDS011;10075;50.924;4.396;2023-08-06T04:55:04;12.75;;;7.35;;
19828;SDS011;10075;50.924;4.396;2023-08-06T04:57:32;14.35;;;8.25;;
19828;SDS011;10075;50.924;4.396;2023-08-06T04:59:59;14.18;;;7.68;;
19828;SDS011;10075;50.924;4.396;2023-08-06T05:02:27;12.73;;;7.40;;
19828;SDS011;10075;50.924;4.396;2023-08-06T05:04:54;18.23;;;8.85;;
19828;SDS011;10075;50.924;4.396;2023-08-06T05:07:21;11.65;;;7.40;;
19828;SDS011;10075;50.924;4.396;2023-08-06T05:09:48;12.45;;;7.30;;
19828;SDS011;10075;50.924;4.396;2023-08-06T05:12:15;12.18;;;7.28;;
19828;SDS011;10075;50.924;4.396;2023-08-06T05:14:42;11.77;;;6.22;;
19828;SDS011;10075;50.924;4.396;2023-08-06T05:17:09;13.68;;;7.15;;
19828;SDS011;10075;50.924;4.396;2023-08-06T05:19:37;16.50;;;7.22;;
19828;SDS011;10075;50.924;4.396;2023-08-06T05:22:04;14.98;;;6.22;;
19828;SDS011;10075;50.924;4.396;2023-08-06T05:24:31;14.45;;;7.03;;
19828;SDS011;10075;50.924;4.396;2023-08-06T05:26:58;16.88;;;6.80;;
19828;SDS011;10075;50.924;4.396;2023-08-06T05:29:25;15.48;;;6.95;;
19828;SDS011;10075;50.924;4.396;2023-08-06T05:31:53;14.32;;;6.90;;
19828;SDS011;10075;50.924;4.396;2023-08-06T05:34:20;15.20;;;6.05;;
19828;SDS011;10075;50.924;4.396;2023-08-06T05:36:48;21.85;;;6.90;;
19828;SDS011;10075;50.924;4.396;2023-08-06T05:39:15;16.95;;;6.80;;
19828;SDS011;10075;50.924;4.396;2023-08-06T05:41:42;15.85;;;5.63;;
19828;SDS011;10075;50.924;4.396;2023-08-06T05:44:09;17.95;;;6.47;;
19828;SDS011;10075;50.924;4.396;2023-08-06T05:46:36;18.08;;;6.35;;
19828;SDS011;10075;50.924;4.396;2023-08-06T05:49:03;18.38;;;6.40;;
19828;SDS011;10075;50.924;4.396;2023-08-06T05:51:30;28.42;;;8.23;;
19828;SDS011;10075;50.924;4.396;2023-08-06T05:53:58;16.17;;;6.85;;
19828;SDS011;10075;50.924;4.396;2023-08-06T05:56:25;20.75;;;7.60;;
19828;SDS011;10075;50.924;4.396;2023-08-06T05:58:52;20.67;;;7.03;;
19828;SDS011;10075;50.924;4.396;2023-08-06T06:01:19;28.58;;;7.20;;
19828;SDS011;10075;50.924;4.396;2023-08-06T06:03:46;18.52;;;7.05;;
19828;SDS011;10075;50.924;4.396;2023-08-06T06:06:13;19.48;;;6.75;;
19828;SDS011;10075;50.924;4.396;2023-08-06T06:08:41;21.00;;;6.70;;
19828;SDS011;10075;50.924;4.396;2023-08-06T06:11:09;18.98;;;6.47;;
19828;SDS011;10075;50.924;4.396;2023-08-06T06:13:36;19.20;;;6.13;;
19828;SDS011;10075;50.924;4.396;2023-08-06T06:16:03;14.68;;;5.90;;
19828;SDS011;10075;50.924;4.396;2023-08-06T06:18:30;15.82;;;5.22;;
19828;SDS011;10075;50.924;4.396;2023-08-06T06:20:57;21.17;;;6.72;;
19828;SDS011;10075;50.924;4.396;2023-08-06T06:23:24;8.18;;;4.80;;
19828;SDS011;10075;50.924;4.396;2023-08-06T06:25:51;14.43;;;5.47;;
19828;SDS011;10075;50.924;4.396;2023-08-06T06:28:19;14.60;;;5.13;;
19828;SDS011;10075;50.924;4.396;2023-08-06T06:30:46;19.15;;;6.28;;
19828;SDS011;10075;50.924;4.396;2023-08-06T06:33:14;18.05;;;5.57;;
19828;SDS011;10075;50.924;4.396;2023-08-06T06:35:41;14.95;;;5.47;;
19828;SDS011;10075;50.924;4.396;2023-08-06T06:38:08;12.52;;;4.72;;
19828;SDS011;10075;50.924;4.396;2023-08-06T06:40:35;18.27;;;5.28;;
19828;SDS011;10075;50.924;4.396;2023-08-06T06:43:02;17.92;;;5.40;;
19828;SDS011;10075;50.924;4.396;2023-08-06T06:45:30;14.18;;;5.97;;
19828;SDS011;10075;50.924;4.396;2023-08-06T06:47:57;13.38;;;5.20;;
19828;SDS011;10075;50.924;4.396;2023-08-06T06:50:24;14.35;;;5.15;;
19828;SDS011;10075;50.924;4.396;2023-08-06T06:52:51;13.18;;;5.10;;
19828;SDS011;10075;50.924;4.396;2023-08-06T06:55:18;13.77;;;5.47;;
19828;SDS011;10075;50.924;4.396;2023-08-06T06:57:45;16.20;;;5.88;;
19828;SDS011;10075;50.924;4.396;2023-08-06T07:00:13;16.05;;;5.78;;
19828;SDS011;10075;50.924;4.396;2023-08-06T07:02:41;18.45;;;6.00;;
19828;SDS011;10075;50.924;4.396;2023-08-06T07:05:08;14.93;;;6.25;;
19828;SDS011;10075;50.924;4.396;2023-08-06T07:07:35;18.02;;;6.55;;
19828;SDS011;10075;50.924;4.396;2023-08-06T07:10:03;13.30;;;5.72;;
19828;SDS011;10075;50.924;4.396;2023-08-06T07:12:31;18.13;;;4.80;;
19828;SDS011;10075;50.924;4.396;2023-08-06T07:14:59;11.27;;;4.15;;
19828;SDS011;10075;50.924;4.396;2023-08-06T07:17:26;10.75;;;3.40;;
19828;SDS011;10075;50.924;4.396;2023-08-06T07:19:54;12.15;;;3.03;;
19828;SDS011;10075;50.924;4.396;2023-08-06T07:22:21;12.20;;;3.28;;
19828;SDS011;10075;50.924;4.396;2023-08-06T07:24:48;11.60;;;2.90;;
19828;SDS011;10075;50.924;4.396;2023-08-06T07:27:15;19.77;;;3.10;;
19828;SDS011;10075;50.924;4.396;2023-08-06T07:29:42;13.48;;;2.70;;
19828;SDS011;10075;50.924;4.396;2023-08-06T07:32:09;14.40;;;3.03;;
19828;SDS011;10075;50.924;4.396;2023-08-06T07:34:36;8.55;;;2.45;;
19828;SDS011;10075;50.924;4.396;2023-08-06T07:37:04;13.18;;;3.08;;
19828;SDS011;10075;50.924;4.396;2023-08-06T07:39:32;14.63;;;3.95;;
19828;SDS011;10075;50.924;4.396;2023-08-06T07:41:59;10.43;;;2.88;;
19828;SDS011;10075;50.924;4.396;2023-08-06T07:44:27;18.33;;;3.80;;
19828;SDS011;10075;50.924;4.396;2023-08-06T07:46:54;13.82;;;2.65;;
19828;SDS011;10075;50.924;4.396;2023-08-06T07:49:21;13.63;;;2.47;;
19828;SDS011;10075;50.924;4.396;2023-08-06T07:51:48;19.45;;;2.72;;
19828;SDS011;10075;50.924;4.396;2023-08-06T07:54:18;12.43;;;2.60;;
19828;SDS011;10075;50.924;4.396;2023-08-06T07:56:45;13.40;;;2.72;;
19828;SDS011;10075;50.924;4.396;2023-08-06T07:59:12;15.57;;;2.10;;
19828;SDS011;10075;50.924;4.396;2023-08-06T08:01:39;14.65;;;2.50;;
19828;SDS011;10075;50.924;4.396;2023-08-06T08:04:05;17.27;;;2.53;;
19828;SDS011;10075;50.924;4.396;2023-08-06T08:06:33;12.82;;;2.70;;
19828;SDS011;10075;50.924;4.396;2023-08-06T08:09:00;20.00;;;2.72;;
19828;SDS011;10075;50.924;4.396;2023-08-06T08:11:28;10.13;;;2.30;;
19828;SDS011;10075;50.924;4.396;2023-08-06T08:13:55;13.60;;;2.97;;
19828;SDS011;10075;50.924;4.396;2023-08-06T08:16:22;11.65;;;2.17;;
19828;SDS011;10075;50.924;4.396;2023-08-06T08:18:49;11.05;;;2.83;;
19828;SDS011;10075;50.924;4.396;2023-08-06T08:21:16;23.20;;;3.33;;
19828;SDS011;10075;50.924;4.396;2023-08-06T08:23:43;14.77;;;2.75;;
19828;SDS011;10075;50.924;4.396;2023-08-06T08:26:10;13.68;;;2.95;;
19828;SDS011;10075;50.924;4.396;2023-08-06T08:28:38;11.02;;;2.42;;
19828;SDS011;10075;50.924;4.396;2023-08-06T08:31:07;12.05;;;2.17;;
19828;SDS011;10075;50.924;4.396;2023-08-06T08:33:36;10.38;;;2.22;;
19828;SDS011;10075;50.924;4.396;2023-08-06T08:36:03;13.85;;;2.42;;
19828;SDS011;10075;50.924;4.396;2023-08-06T08:38:30;11.05;;;2.03;;
19828;SDS011;10075;50.924;4.396;2023-08-06T08:40:57;14.27;;;2.10;;
19828;SDS011;10075;50.924;4.396;2023-08-06T08:43:24;11.38;;;2.03;;
19828;SDS011;10075;50.924;4.396;2023-08-06T08:45:54;14.43;;;2.45;;
19828;SDS011;10075;50.924;4.396;2023-08-06T08:48:23;9.38;;;2.10;;
19828;SDS011;10075;50.924;4.396;2023-08-06T08:50:52;14.30;;;2.28;;
19828;SDS011;10075;50.924;4.396;2023-08-06T08:53:19;13.20;;;2.22;;
19828;SDS011;10075;50.924;4.396;2023-08-06T08:55:48;12.18;;;2.50;;
19828;SDS011;10075;50.924;4.396;2023-08-06T08:58:15;10.32;;;2.45;;
19828;SDS011;10075;50.924;4.396;2023-08-06T09:00:42;11.43;;;3.08;;
19828;SDS011;10075;50.924;4.396;2023-08-06T09:03:12;11.45;;;2.25;;
19828;SDS011;10075;50.924;4.396;2023-08-06T09:05:41;9.60;;;2.03;;
19828;SDS011;10075;50.924;4.396;2023-08-06T09:08:11;12.35;;;2.58;;
19828;SDS011;10075;50.924;4.396;2023-08-06T09:10:41;14.35;;;3.40;;
19828;SDS011;10075;50.924;4.396;2023-08-06T09:13:10;12.32;;;2.50;;
19828;SDS011;10075;50.924;4.396;2023-08-06T09:15:37;6.53;;;1.98;;
19828;SDS011;10075;50.924;4.396;2023-08-06T09:18:09;14.40;;;2.70;;
19828;SDS011;10075;50.924;4.396;2023-08-06T09:20:38;10.50;;;2.75;;
19828;SDS011;10075;50.924;4.396;2023-08-06T09:23:08;12.43;;;2.55;;
19828;SDS011;10075;50.924;4.396;2023-08-06T09:25:37;12.82;;;2.88;;
19828;SDS011;10075;50.924;4.396;2023-08-06T09:28:05;16.67;;;3.22;;
19828;SDS011;10075;50.924;4.396;2023-08-06T09:30:33;11.43;;;2.50;;
19828;SDS011;10075;50.924;4.396;2023-08-06T09:33:01;18.10;;;3.25;;
19828;SDS011;10075;50.924;4.396;2023-08-06T09:35:28;12.37;;;3.00;;
19828;SDS011;10075;50.924;4.396;2023-08-06T09:37:58;16.85;;;2.72;;
19828;SDS011;10075;50.924;4.396;2023-08-06T09:40:33;12.32;;;2.50;;
19828;SDS011;10075;50.924;4.396;2023-08-06T09:43:00;10.02;;;2.90;;
19828;SDS011;10075;50.924;4.396;2023-08-06T09:45:28;13.15;;;3.00;;
19828;SDS011;10075;50.924;4.396;2023-08-06T09:47:56;15.25;;;3.25;;
19828;SDS011;10075;50.924;4.396;2023-08-06T09:50:25;14.25;;;3.25;;
19828;SDS011;10075;50.924;4.396;2023-08-06T09:52:58;13.30;;;3.55;;
19828;SDS011;10075;50.924;4.396;2023-08-06T09:55:25;19.83;;;3.50;;
19828;SDS011;10075;50.924;4.396;2023-08-06T09:57:53;13.18;;;3.55;;
19828;SDS011;10075;50.924;4.396;2023-08-06T10:00:20;15.75;;;2.75;;
19828;SDS011;10075;50.924;4.396;2023-08-06T10:02:47;19.52;;;3.85;;
19828;SDS011;10075;50.924;4.396;2023-08-06T10:05:16;18.23;;;3.58;;
19828;SDS011;10075;50.924;4.396;2023-08-06T10:07:44;16.50;;;3.75;;
19828;SDS011;10075;50.924;4.396;2023-08-06T10:10:14;15.10;;;3.63;;
19828;SDS011;10075;50.924;4.396;2023-08-06T10:12:43;14.13;;;2.85;;
19828;SDS011;10075;50.924;4.396;2023-08-06T10:15:15;16.15;;;3.03;;
19828;SDS011;10075;50.924;4.396;2023-08-06T10:17:47;15.85;;;3.22;;
19828;SDS011;10075;50.924;4.396;2023-08-06T10:20:16;13.93;;;3.20;;
19828;SDS011;10075;50.924;4.396;2023-08-06T10:22:46;12.55;;;3.08;;
19828;SDS011;10075;50.924;4.396;2023-08-06T10:25:28;11.05;;;2.67;;
19828;SDS011;10075;50.924;4.396;2023-08-06T10:27:58;11.50;;;2.35;;
19828;SDS011;10075;50.924;4.396;2023-08-06T10:30:25;10.30;;;2.40;;
19828;SDS011;10075;50.924;4.396;2023-08-06T10:32:56;12.07;;;2.28;;
19828;SDS011;10075;50.924;4.396;2023-08-06T10:35:31;10.95;;;2.05;;
19828;SDS011;10075;50.924;4.396;2023-08-06T10:38:05;9.88;;;1.92;;
19828;SDS011;10075;50.924;4.396;2023-08-06T10:40:35;9.07;;;1.80;;
19828;SDS011;10075;50.924;4.396;2023-08-06T10:43:03;10.65;;;2.45;;
19828;SDS011;10075;50.924;4.396;2023-08-06T10:45:34;8.63;;;2.25;;
19828;SDS011;10075;50.924;4.396;2023-08-06T10:48:01;8.75;;;2.47;;
19828;SDS011;10075;50.924;4.396;2023-08-06T10:50:29;7.93;;;2.85;;
19828;SDS011;10075;50.924;4.396;2023-08-06T10:52:57;14.05;;;2.55;;
19828;SDS011;10075;50.924;4.396;2023-08-06T10:55:29;16.05;;;3.38;;
19828;SDS011;10075;50.924;4.396;2023-08-06T10:57:58;14.27;;;3.35;;
19828;SDS011;10075;50.924;4.396;2023-08-06T11:00:25;14.63;;;3.10;;
19828;SDS011;10075;50.924;4.396;2023-08-06T11:02:52;6.78;;;2.65;;
19828;SDS011;10075;50.924;4.396;2023-08-06T11:05:20;13.23;;;3.53;;
19828;SDS011;10075;50.924;4.396;2023-08-06T11:07:47;15.85;;;3.55;;
19828;SDS011;10075;50.924;4.396;2023-08-06T11:10:16;13.00;;;2.85;;
19828;SDS011;10075;50.924;4.396;2023-08-06T11:12:43;10.25;;;2.78;;
19828;SDS011;10075;50.924;4.396;2023-08-06T11:15:12;15.43;;;3.75;;
19828;SDS011;10075;50.924;4.396;2023-08-06T11:17:39;12.13;;;3.42;;
19828;SDS011;10075;50.924;4.396;2023-08-06T11:20:08;13.52;;;3.63;;
19828;SDS011;10075;50.924;4.396;2023-08-06T11:22:36;16.05;;;3.53;;
19828;SDS011;10075;50.924;4.396;2023-08-06T11:25:04;15.80;;;3.70;;
19828;SDS011;10075;50.924;4.396;2023-08-06T11:27:32;12.20;;;3.70;;
19828;SDS011;10075;50.924;4.396;2023-08-06T11:29:59;15.13;;;3.50;;
19828;SDS011;10075;50.924;4.396;2023-08-06T11:32:27;13.23;;;3.78;;
19828;SDS011;10075;50.924;4.396;2023-08-06T11:34:55;11.15;;;3.20;;
19828;SDS011;10075;50.924;4.396;2023-08-06T11:37:22;11.65;;;3.30;;
19828;SDS011;10075;50.924;4.396;2023-08-06T11:39:50;11.00;;;3.15;;
19828;SDS011;10075;50.924;4.396;2023-08-06T11:42:18;10.45;;;3.22;;
19828;SDS011;10075;50.924;4.396;2023-08-06T11:44:45;11.73;;;3.00;;
19828;SDS011;10075;50.924;4.396;2023-08-06T11:47:13;9.07;;;2.50;;
19828;SDS011;10075;50.924;4.396;2023-08-06T11:49:43;10.65;;;2.72;;
19828;SDS011;10075;50.924;4.396;2023-08-06T11:52:15;10.95;;;2.88;;
19828;SDS011;10075;50.924;4.396;2023-08-06T11:54:44;13.32;;;2.47;;
19828;SDS011;10075;50.924;4.396;2023-08-06T11:57:12;6.85;;;2.10;;
19828;SDS011;10075;50.924;4.396;2023-08-06T11:59:39;7.38;;;1.70;;
19828;SDS011;10075;50.924;4.396;2023-08-06T12:02:07;8.63;;;2.38;;
19828;SDS011;10075;50.924;4.396;2023-08-06T12:07:30;12.57;;;2.63;;
19828;SDS011;10075;50.924;4.396;2023-08-06T12:09:58;13.45;;;2.60;;
19828;SDS011;10075;50.924;4.396;2023-08-06T12:12:25;12.90;;;3.17;;
19828;SDS011;10075;50.924;4.396;2023-08-06T12:14:53;11.27;;;2.58;;
19828;SDS011;10075;50.924;4.396;2023-08-06T12:17:20;7.88;;;2.20;;
19828;SDS011;10075;50.924;4.396;2023-08-06T12:19:47;9.95;;;2.42;;
19828;SDS011;10075;50.924;4.396;2023-08-06T12:22:16;10.18;;;2.58;;
19828;SDS011;10075;50.924;4.396;2023-08-06T12:24:43;16.70;;;2.55;;
19828;SDS011;10075;50.924;4.396;2023-08-06T12:27:11;11.57;;;2.35;;
19828;SDS011;10075;50.924;4.396;2023-08-06T12:29:40;11.90;;;2.70;;
19828;SDS011;10075;50.924;4.396;2023-08-06T12:32:07;10.93;;;2.75;;
19828;SDS011;10075;50.924;4.396;2023-08-06T12:34:35;9.30;;;2.45;;
19828;SDS011;10075;50.924;4.396;2023-08-06T12:37:02;11.65;;;2.65;;
19828;SDS011;10075;50.924;4.396;2023-08-06T12:39:30;7.05;;;1.85;;
19828;SDS011;10075;50.924;4.396;2023-08-06T12:41:58;10.80;;;2.35;;
19828;SDS011;10075;50.924;4.396;2023-08-06T12:44:25;13.98;;;3.35;;
19828;SDS011;10075;50.924;4.396;2023-08-06T12:46:52;15.07;;;2.85;;
19828;SDS011;10075;50.924;4.396;2023-08-06T12:49:19;8.77;;;2.60;;
19828;SDS011;10075;50.924;4.396;2023-08-06T12:51:47;15.23;;;2.25;;
19828;SDS011;10075;50.924;4.396;2023-08-06T12:54:16;10.85;;;2.83;;
19828;SDS011;10075;50.924;4.396;2023-08-06T12:56:45;12.00;;;2.70;;
19828;SDS011;10075;50.924;4.396;2023-08-06T12:59:13;7.80;;;2.45;;
19828;SDS011;10075;50.924;4.396;2023-08-06T13:01:41;15.63;;;2.80;;
19828;SDS011;10075;50.924;4.396;2023-08-06T13:04:08;10.32;;;2.60;;
19828;SDS011;10075;50.924;4.396;2023-08-06T13:06:36;13.65;;;2.63;;
19828;SDS011;10075;50.924;4.396;2023-08-06T13:09:04;9.57;;;2.40;;
19828;SDS011;10075;50.924;4.396;2023-08-06T13:11:32;12.07;;;2.45;;
19828;SDS011;10075;50.924;4.396;2023-08-06T13:14:03;9.00;;;1.80;;
19828;SDS011;10075;50.924;4.396;2023-08-06T13:16:31;12.82;;;1.88;;
19828;SDS011;10075;50.924;4.396;2023-08-06T13:18:58;9.85;;;2.70;;
19828;SDS011;10075;50.924;4.396;2023-08-06T13:21:32;10.35;;;1.98;;
19828;SDS011;10075;50.924;4.396;2023-08-06T13:24:00;10.82;;;2.80;;
19828;SDS011;10075;50.924;4.396;2023-08-06T13:26:28;11.40;;;2.45;;
19828;SDS011;10075;50.924;4.396;2023-08-06T13:28:56;9.33;;;2.37;;
19828;SDS011;10075;50.924;4.396;2023-08-06T13:31:25;10.50;;;2.28;;
19828;SDS011;10075;50.924;4.396;2023-08-06T13:33:52;14.65;;;2.33;;
19828;SDS011;10075;50.924;4.396;2023-08-06T13:36:20;14.38;;;2.55;;
19828;SDS011;10075;50.924;4.396;2023-08-06T13:38:47;13.05;;;2.80;;
19828;SDS011;10075;50.924;4.396;2023-08-06T13:41:14;11.80;;;2.50;;
19828;SDS011;10075;50.924;4.396;2023-08-06T13:43:42;9.30;;;2.55;;
19828;SDS011;10075;50.924;4.396;2023-08-06T13:46:10;13.03;;;2.60;;
19828;SDS011;10075;50.924;4.396;2023-08-06T13:48:42;12.18;;;2.70;;
19828;SDS011;10075;50.924;4.396;2023-08-06T13:51:10;8.60;;;1.83;;
19828;SDS011;10075;50.924;4.396;2023-08-06T13:53:38;11.27;;;2.88;;
19828;SDS011;10075;50.924;4.396;2023-08-06T13:56:05;14.73;;;2.78;;
19828;SDS011;10075;50.924;4.396;2023-08-06T13:58:34;11.52;;;2.17;;
19828;SDS011;10075;50.924;4.396;2023-08-06T14:01:01;10.35;;;2.63;;
19828;SDS011;10075;50.924;4.396;2023-08-06T14:03:28;11.43;;;2.83;;
19828;SDS011;10075;50.924;4.396;2023-08-06T14:05:57;9.73;;;2.88;;
19828;SDS011;10075;50.924;4.396;2023-08-06T14:08:24;10.05;;;2.63;;
19828;SDS011;10075;50.924;4.396;2023-08-06T14:10:51;17.50;;;3.47;;
19828;SDS011;10075;50.924;4.396;2023-08-06T14:13:18;12.35;;;3.15;;
19828;SDS011;10075;50.924;4.396;2023-08-06T14:15:45;16.50;;;3.00;;
19828;SDS011;10075;50.924;4.396;2023-08-06T14:18:13;10.30;;;2.53;;
19828;SDS011;10075;50.924;4.396;2023-08-06T14:20:40;12.57;;;3.08;;
19828;SDS011;10075;50.924;4.396;2023-08-06T14:23:08;14.20;;;3.03;;
19828;SDS011;10075;50.924;4.396;2023-08-06T14:25:35;12.10;;;3.13;;
19828;SDS011;10075;50.924;4.396;2023-08-06T14:28:03;14.05;;;3.15;;
19828;SDS011;10075;50.924;4.396;2023-08-06T14:30:31;10.82;;;3.10;;
19828;SDS011;10075;50.924;4.396;2023-08-06T14:32:58;17.50;;;3.47;;
19828;SDS011;10075;50.924;4.396;2023-08-06T14:35:26;14.73;;;2.90;;
19828;SDS011;10075;50.924;4.396;2023-08-06T14:37:53;17.15;;;3.35;;
19828;SDS011;10075;50.924;4.396;2023-08-06T14:40:22;13.93;;;2.92;;
19828;SDS011;10075;50.924;4.396;2023-08-06T14:42:50;15.57;;;2.55;;